createdAt,value
2023-03-31T00:00:44.959Z,7.13
2023-03-31T00:01:44.962Z,7.15
2023-03-31T00:02:45.018Z,7.18
2023-03-31T00:03:45.285Z,7.18
2023-03-31T00:04:44.948Z,7.20
2023-03-31T00:05:44.888Z,7.18
2023-03-31T00:06:44.882Z,7.20
2023-03-31T00:07:44.872Z,7.20
2023-03-31T00:08:44.866Z,7.20
2023-03-31T00:09:44.848Z,7.18
2023-03-31T00:10:44.840Z,7.20
2023-03-31T00:11:44.822Z,7.20
2023-03-31T00:12:44.812Z,7.21
2023-03-31T00:13:44.800Z,7.18
2023-03-31T00:14:44.783Z,7.21
2023-03-31T00:15:44.770Z,7.21
2023-03-31T00:16:44.798Z,7.18
2023-03-31T00:17:44.795Z,7.18
2023-03-31T00:18:44.738Z,7.20
2023-03-31T00:19:44.738Z,7.23
2023-03-31T00:20:44.710Z,7.24
2023-03-31T00:21:44.696Z,7.24
2023-03-31T00:22:44.682Z,7.21
2023-03-31T00:23:44.666Z,7.21
2023-03-31T00:24:44.660Z,7.21
2023-03-31T00:25:44.643Z,7.23
2023-03-31T00:26:44.631Z,7.24
2023-03-31T00:27:44.619Z,7.25
2023-03-31T00:28:44.607Z,7.24
2023-03-31T00:29:44.592Z,7.28
2023-03-31T00:30:44.569Z,7.28
2023-03-31T00:31:44.631Z,7.25
2023-03-31T00:32:44.560Z,7.24
2023-03-31T00:33:44.537Z,7.24
2023-03-31T00:34:44.514Z,7.25
2023-03-31T00:35:44.541Z,7.23
2023-03-31T00:36:44.495Z,7.25
2023-03-31T00:37:44.492Z,7.28
2023-03-31T00:38:44.470Z,7.31
2023-03-31T00:39:44.467Z,7.31
2023-03-31T00:40:44.449Z,7.29
2023-03-31T00:41:44.435Z,7.32
2023-03-31T00:42:44.423Z,7.32
2023-03-31T00:43:44.415Z,7.33
2023-03-31T00:44:44.399Z,7.36
2023-03-31T00:45:44.410Z,7.36
2023-03-31T00:46:44.387Z,7.36
2023-03-31T00:47:44.391Z,7.36
2023-03-31T00:48:44.347Z,7.39
2023-03-31T00:49:44.329Z,7.38
2023-03-31T00:50:44.334Z,7.36
2023-03-31T00:51:44.333Z,7.33
2023-03-31T00:52:44.287Z,7.32
2023-03-31T00:53:44.278Z,7.31
2023-03-31T00:54:44.285Z,7.28
2023-03-31T00:55:44.258Z,7.28
2023-03-31T00:56:44.361Z,7.28
2023-03-31T00:57:44.222Z,7.25
2023-03-31T00:58:44.214Z,7.28
2023-03-31T00:59:44.205Z,7.28
2023-03-31T01:00:44.196Z,7.29
2023-03-31T01:01:44.225Z,7.31
2023-03-31T01:02:44.188Z,7.31
2023-03-31T01:03:44.195Z,7.31
2023-03-31T01:04:44.134Z,7.32
2023-03-31T01:05:44.135Z,7.33
2023-03-31T01:06:44.116Z,7.35
2023-03-31T01:07:44.129Z,7.35
2023-03-31T01:08:44.088Z,7.38
2023-03-31T01:09:44.076Z,7.36
2023-03-31T01:10:44.057Z,7.39
2023-03-31T01:11:44.042Z,7.40
2023-03-31T01:12:44.029Z,7.40
2023-03-31T01:13:44.018Z,7.42
2023-03-31T01:14:44.007Z,7.43
2023-03-31T01:15:43.993Z,7.40
2023-03-31T01:16:44.068Z,7.40
2023-03-31T01:17:44.111Z,7.36
2023-03-31T01:18:44.044Z,7.35
2023-03-31T01:19:43.946Z,7.33
2023-03-31T01:20:43.939Z,7.33
2023-03-31T01:21:43.913Z,7.33
2023-03-31T01:22:43.911Z,7.32
2023-03-31T01:23:43.926Z,7.29
2023-03-31T01:24:43.881Z,7.28
2023-03-31T01:25:43.865Z,7.28
2023-03-31T01:26:43.867Z,7.28
2023-03-31T01:27:43.868Z,7.25
2023-03-31T01:28:43.828Z,7.28
2023-03-31T01:29:43.827Z,7.29
2023-03-31T01:30:43.808Z,7.32
2023-03-31T01:31:43.917Z,7.33
2023-03-31T01:32:43.821Z,7.36
2023-03-31T01:33:43.763Z,7.36
2023-03-31T01:34:43.749Z,7.39
2023-03-31T01:35:43.761Z,7.42
2023-03-31T01:36:43.738Z,7.43
2023-03-31T01:37:43.716Z,7.45
2023-03-31T01:38:43.703Z,7.45
2023-03-31T01:39:43.736Z,7.50
2023-03-31T01:40:43.676Z,7.56
2023-03-31T01:41:43.671Z,7.61
2023-03-31T01:42:43.652Z,7.67
2023-03-31T01:43:43.658Z,7.69
2023-03-31T01:44:43.633Z,7.73
2023-03-31T01:45:43.613Z,7.76
2023-03-31T01:46:43.656Z,7.79
2023-03-31T01:47:43.632Z,7.82
2023-03-31T01:48:43.600Z,7.85
2023-03-31T01:49:43.579Z,7.87
2023-03-31T01:50:43.554Z,7.91
2023-03-31T01:51:43.559Z,7.94
2023-03-31T01:52:43.522Z,7.95
2023-03-31T01:53:43.518Z,7.98
2023-03-31T01:54:43.506Z,8.00
2023-03-31T01:55:43.514Z,7.98
2023-03-31T01:56:43.495Z,8.00
2023-03-31T01:57:43.459Z,8.01
2023-03-31T01:58:43.453Z,8.05
2023-03-31T01:59:43.443Z,8.05
2023-03-31T02:00:43.423Z,8.09
2023-03-31T02:01:43.442Z,8.09
2023-03-31T02:02:43.493Z,8.08
2023-03-31T02:03:43.468Z,8.10
2023-03-31T02:04:43.383Z,8.12
2023-03-31T02:05:43.360Z,8.12
2023-03-31T02:06:43.350Z,8.13
2023-03-31T02:07:43.332Z,8.13
2023-03-31T02:08:43.323Z,8.15
2023-03-31T02:09:43.308Z,8.15
2023-03-31T02:10:43.336Z,8.16
2023-03-31T02:11:43.316Z,8.15
2023-03-31T02:12:43.270Z,8.13
2023-03-31T02:13:43.266Z,8.12
2023-03-31T02:14:43.247Z,8.10
2023-03-31T02:15:43.234Z,8.09
2023-03-31T02:16:43.282Z,8.08
2023-03-31T02:17:43.202Z,8.06
2023-03-31T02:18:43.195Z,8.10
2023-03-31T02:19:43.182Z,8.10
2023-03-31T02:20:43.160Z,8.10
2023-03-31T02:21:43.149Z,8.09
2023-03-31T02:22:43.139Z,8.10
2023-03-31T02:23:43.136Z,8.10
2023-03-31T02:24:43.122Z,8.12
2023-03-31T02:25:43.100Z,8.10
2023-03-31T02:26:43.095Z,8.10
2023-03-31T02:27:43.112Z,8.09
2023-03-31T02:28:43.072Z,8.09
2023-03-31T02:29:43.068Z,8.08
2023-03-31T02:30:43.045Z,8.08
2023-03-31T02:31:43.119Z,8.06
2023-03-31T02:32:43.093Z,8.06
2023-03-31T02:33:43.006Z,8.06
2023-03-31T02:34:42.988Z,8.06
2023-03-31T02:35:42.996Z,8.05
2023-03-31T02:36:42.973Z,8.03
2023-03-31T02:37:42.957Z,8.05
2023-03-31T02:38:42.943Z,8.03
2023-03-31T02:39:42.928Z,8.03
2023-03-31T02:40:42.903Z,8.01
2023-03-31T02:41:42.949Z,8.01
2023-03-31T02:42:42.894Z,8.00
2023-03-31T02:43:42.900Z,8.00
2023-03-31T02:44:42.862Z,8.00
2023-03-31T02:45:43.001Z,7.98
2023-03-31T02:46:42.844Z,7.97
2023-03-31T02:47:42.854Z,7.95
2023-03-31T02:48:42.804Z,7.94
2023-03-31T02:49:42.808Z,7.91
2023-03-31T02:50:42.791Z,7.94
2023-03-31T02:51:42.776Z,7.93
2023-03-31T02:52:42.767Z,7.93
2023-03-31T02:53:42.746Z,7.94
2023-03-31T02:54:42.733Z,7.93
2023-03-31T02:55:42.716Z,7.91
2023-03-31T02:56:42.740Z,7.91
2023-03-31T02:57:42.698Z,7.91
2023-03-31T02:58:42.686Z,7.91
2023-03-31T02:59:42.704Z,7.90
2023-03-31T03:00:42.661Z,7.90
2023-03-31T03:01:42.662Z,7.88
2023-03-31T03:02:42.696Z,7.90
2023-03-31T03:03:42.623Z,7.90
2023-03-31T03:04:42.614Z,7.90
2023-03-31T03:05:42.601Z,7.88
2023-03-31T03:06:42.602Z,7.90
2023-03-31T03:07:42.572Z,7.88
2023-03-31T03:08:42.555Z,7.87
2023-03-31T03:09:42.542Z,7.88
2023-03-31T03:10:42.532Z,7.87
2023-03-31T03:11:42.519Z,7.85
2023-03-31T03:12:42.510Z,7.83
2023-03-31T03:13:42.499Z,7.80
2023-03-31T03:14:42.479Z,7.79
2023-03-31T03:15:42.495Z,7.77
2023-03-31T03:16:42.492Z,7.76
2023-03-31T03:17:42.530Z,7.76
2023-03-31T03:18:42.423Z,7.73
2023-03-31T03:19:42.431Z,7.73
2023-03-31T03:20:42.398Z,7.75
2023-03-31T03:21:42.394Z,7.72
2023-03-31T03:22:42.372Z,7.72
2023-03-31T03:23:42.368Z,7.72
2023-03-31T03:24:42.361Z,7.72
2023-03-31T03:25:42.338Z,7.73
2023-03-31T03:26:42.337Z,7.67
2023-03-31T03:27:42.315Z,7.67
2023-03-31T03:28:42.298Z,7.63
2023-03-31T03:29:42.291Z,7.61
2023-03-31T03:30:42.297Z,7.60
2023-03-31T03:31:42.287Z,7.60
2023-03-31T03:32:42.282Z,7.57
2023-03-31T03:33:42.239Z,7.56
2023-03-31T03:34:42.227Z,7.54
2023-03-31T03:35:42.237Z,7.53
2023-03-31T03:36:42.197Z,7.53
2023-03-31T03:37:42.184Z,7.50
2023-03-31T03:38:42.179Z,7.48
2023-03-31T03:39:42.173Z,7.48
2023-03-31T03:40:42.146Z,7.47
2023-03-31T03:41:42.142Z,7.47
2023-03-31T03:42:42.124Z,7.45
2023-03-31T03:43:42.110Z,7.48
2023-03-31T03:44:42.102Z,7.47
2023-03-31T03:45:42.089Z,7.47
2023-03-31T03:46:42.107Z,7.47
2023-03-31T03:47:42.135Z,7.51
2023-03-31T03:48:42.052Z,7.54
2023-03-31T03:49:42.080Z,7.57
2023-03-31T03:50:42.022Z,7.60
2023-03-31T03:51:42.015Z,7.66
2023-03-31T03:52:42.002Z,7.70
2023-03-31T03:53:41.988Z,7.70
2023-03-31T03:54:41.984Z,7.70
2023-03-31T03:55:41.970Z,7.70
2023-03-31T03:56:42.055Z,7.72
2023-03-31T03:57:41.932Z,7.70
2023-03-31T03:58:41.913Z,7.72
2023-03-31T03:59:41.908Z,7.73
2023-03-31T04:00:41.900Z,7.73
2023-03-31T04:01:41.893Z,7.75
2023-03-31T04:02:42.031Z,7.73
2023-03-31T04:03:41.869Z,7.72
2023-03-31T04:04:41.868Z,7.72
2023-03-31T04:05:41.818Z,7.73
2023-03-31T04:06:41.811Z,7.72
2023-03-31T04:07:41.793Z,7.70
2023-03-31T04:08:41.781Z,7.72
2023-03-31T04:09:41.772Z,7.70
2023-03-31T04:10:41.762Z,7.72
2023-03-31T04:11:41.742Z,7.69
2023-03-31T04:12:41.736Z,7.63
2023-03-31T04:13:41.714Z,7.67
2023-03-31T04:14:41.712Z,7.61
2023-03-31T04:15:41.690Z,7.63
2023-03-31T04:16:41.718Z,7.67
2023-03-31T04:17:41.663Z,7.66
2023-03-31T04:18:41.658Z,7.66
2023-03-31T04:19:41.668Z,7.61
2023-03-31T04:20:41.622Z,7.58
2023-03-31T04:21:41.610Z,7.61
2023-03-31T04:22:41.658Z,7.58
2023-03-31T04:23:41.591Z,7.63
2023-03-31T04:24:41.571Z,7.63
2023-03-31T04:25:41.558Z,7.67
2023-03-31T04:26:41.545Z,7.66
2023-03-31T04:27:41.576Z,7.66
2023-03-31T04:28:41.518Z,7.66
2023-03-31T04:29:41.515Z,7.69
2023-03-31T04:30:41.499Z,7.69
2023-03-31T04:31:41.539Z,7.66
2023-03-31T04:32:41.527Z,7.67
2023-03-31T04:33:41.456Z,7.70
2023-03-31T04:34:41.452Z,7.63
2023-03-31T04:35:41.493Z,7.69
2023-03-31T04:36:41.422Z,7.60
2023-03-31T04:37:41.413Z,7.66
2023-03-31T04:38:41.394Z,7.63
2023-03-31T04:39:41.391Z,7.61
2023-03-31T04:40:41.363Z,7.61
2023-03-31T04:41:41.364Z,7.57
2023-03-31T04:42:41.349Z,7.60
2023-03-31T04:43:41.326Z,7.58
2023-03-31T04:44:41.317Z,7.63
2023-03-31T04:45:41.332Z,7.67
2023-03-31T04:46:41.295Z,7.72
2023-03-31T04:47:41.327Z,7.73
2023-03-31T04:48:41.262Z,7.77
2023-03-31T04:49:41.257Z,7.79
2023-03-31T04:50:41.249Z,7.77
2023-03-31T04:51:41.245Z,7.82
2023-03-31T04:52:41.206Z,7.83
2023-03-31T04:53:41.205Z,7.88
2023-03-31T04:54:41.188Z,7.91
2023-03-31T04:55:41.175Z,7.94
2023-03-31T04:56:41.159Z,7.91
2023-03-31T04:57:41.141Z,7.95
2023-03-31T04:58:41.126Z,7.94
2023-03-31T04:59:41.133Z,7.93
2023-03-31T05:00:41.113Z,7.90
2023-03-31T05:01:41.204Z,7.85
2023-03-31T05:02:41.169Z,7.85
2023-03-31T05:03:41.113Z,7.85
2023-03-31T05:04:41.057Z,7.82
2023-03-31T05:05:41.053Z,7.87
2023-03-31T05:06:41.049Z,7.85
2023-03-31T05:07:41.057Z,7.88
2023-03-31T05:08:41.012Z,7.87
2023-03-31T05:09:40.991Z,7.88
2023-03-31T05:10:40.980Z,7.85
2023-03-31T05:11:40.978Z,7.87
2023-03-31T05:12:40.975Z,7.88
2023-03-31T05:13:40.945Z,7.91
2023-03-31T05:14:40.938Z,7.88
2023-03-31T05:15:40.930Z,7.90
2023-03-31T05:16:40.950Z,7.91
2023-03-31T05:17:40.892Z,7.94
2023-03-31T05:18:40.888Z,7.94
2023-03-31T05:19:40.874Z,7.93
2023-03-31T05:20:40.865Z,7.93
2023-03-31T05:21:40.841Z,7.90
2023-03-31T05:22:43.339Z,7.82
2023-03-31T05:23:40.857Z,7.82
2023-03-31T05:24:40.806Z,7.80
2023-03-31T05:25:40.794Z,7.77
2023-03-31T05:26:40.777Z,7.72
2023-03-31T05:27:40.776Z,7.72
2023-03-31T05:28:40.761Z,7.66
2023-03-31T05:29:40.739Z,7.63
2023-03-31T05:30:40.731Z,7.63
2023-03-31T05:31:40.759Z,7.60
2023-03-31T05:32:40.723Z,7.63
2023-03-31T05:33:40.689Z,7.60
2023-03-31T05:34:40.682Z,7.60
2023-03-31T05:35:40.697Z,7.66
2023-03-31T05:36:40.655Z,7.61
2023-03-31T05:37:40.648Z,7.66
2023-03-31T05:38:40.637Z,7.67
2023-03-31T05:39:40.654Z,7.69
2023-03-31T05:40:40.600Z,7.69
2023-03-31T05:41:40.590Z,7.72
2023-03-31T05:42:40.568Z,7.72
2023-03-31T05:43:40.556Z,7.73
2023-03-31T05:44:40.555Z,7.75
2023-03-31T05:45:40.535Z,7.79
2023-03-31T05:46:40.589Z,7.83
2023-03-31T05:47:40.576Z,7.90
2023-03-31T05:48:40.503Z,7.93
2023-03-31T05:49:40.488Z,8.00
2023-03-31T05:50:40.476Z,8.03
2023-03-31T05:51:40.465Z,8.05
2023-03-31T05:52:40.439Z,8.08
2023-03-31T05:53:40.431Z,8.10
2023-03-31T05:54:40.425Z,8.13
2023-03-31T05:55:40.432Z,8.13
2023-03-31T05:56:40.397Z,8.16
2023-03-31T05:57:40.382Z,8.18
2023-03-31T05:58:40.382Z,8.19
2023-03-31T05:59:40.358Z,8.20
2023-03-31T06:00:40.349Z,8.20
2023-03-31T06:01:40.395Z,8.23
2023-03-31T06:02:40.379Z,8.26
2023-03-31T06:03:40.418Z,8.24
2023-03-31T06:04:40.432Z,8.27
2023-03-31T06:05:40.297Z,8.26
2023-03-31T06:06:40.275Z,8.27
2023-03-31T06:07:40.250Z,8.28
2023-03-31T06:08:40.243Z,8.30
2023-03-31T06:09:40.232Z,8.31
2023-03-31T06:10:40.210Z,8.31
2023-03-31T06:11:40.222Z,8.33
2023-03-31T06:12:40.202Z,8.33
2023-03-31T06:13:40.169Z,8.37
2023-03-31T06:14:40.186Z,8.42
2023-03-31T06:15:40.274Z,8.45
2023-03-31T06:16:40.139Z,8.46
2023-03-31T06:17:40.150Z,8.44
2023-03-31T06:18:40.115Z,8.46
2023-03-31T06:19:40.107Z,8.45
2023-03-31T06:20:40.083Z,8.49
2023-03-31T06:21:40.074Z,8.51
2023-03-31T06:22:40.226Z,8.51
2023-03-31T06:23:40.048Z,8.52
2023-03-31T06:24:40.035Z,8.53
2023-03-31T06:25:50.300Z,8.55
2023-03-31T06:26:41.037Z,8.55
2023-03-31T06:27:40.030Z,8.56
2023-03-31T06:28:39.988Z,8.58
2023-03-31T06:29:39.976Z,8.56
2023-03-31T06:30:39.948Z,8.56
2023-03-31T06:31:39.986Z,8.55
2023-03-31T06:32:39.993Z,8.56
2023-03-31T06:33:39.914Z,8.56
2023-03-31T06:34:39.910Z,8.61
2023-03-31T06:35:39.913Z,8.60
2023-03-31T06:36:39.888Z,8.61
2023-03-31T06:37:39.865Z,8.63
2023-03-31T06:38:39.858Z,8.64
2023-03-31T06:39:39.851Z,8.66
2023-03-31T06:40:39.833Z,8.66
2023-03-31T06:41:39.816Z,8.69
2023-03-31T06:42:39.806Z,8.71
2023-03-31T06:43:39.824Z,8.81
2023-03-31T06:44:39.791Z,8.85
2023-03-31T06:45:39.827Z,8.87
2023-03-31T06:46:39.798Z,8.88
2023-03-31T06:47:39.805Z,8.87
2023-03-31T06:48:39.758Z,8.89
2023-03-31T06:49:39.714Z,8.91
2023-03-31T06:50:39.979Z,8.95
2023-03-31T06:51:39.696Z,8.97
2023-03-31T06:52:39.676Z,9.03
2023-03-31T06:53:39.671Z,9.28
2023-03-31T06:54:39.655Z,9.28
2023-03-31T06:55:39.643Z,9.23
2023-03-31T06:56:39.621Z,9.18
2023-03-31T06:57:39.617Z,9.16
2023-03-31T06:58:39.604Z,9.13
2023-03-31T06:59:39.609Z,9.10
2023-03-31T07:00:39.578Z,9.08
2023-03-31T07:01:39.600Z,9.04
2023-03-31T07:02:39.642Z,9.04
2023-03-31T07:03:39.560Z,9.06
2023-03-31T07:04:39.528Z,9.11
2023-03-31T07:05:39.503Z,9.14
2023-03-31T07:06:39.499Z,9.19
2023-03-31T07:07:39.485Z,9.19
2023-03-31T07:08:39.477Z,9.13
2023-03-31T07:09:39.459Z,9.04
2023-03-31T07:10:39.461Z,8.94
2023-03-31T07:11:39.436Z,8.89
2023-03-31T07:12:39.419Z,8.89
2023-03-31T07:13:39.405Z,8.82
2023-03-31T07:14:39.392Z,8.76
2023-03-31T07:15:39.396Z,8.73
2023-03-31T07:16:39.374Z,8.70
2023-03-31T07:17:39.389Z,8.67
2023-03-31T07:19:39.330Z,8.69
2023-03-31T07:20:39.332Z,8.66
2023-03-31T07:21:39.330Z,8.60
2023-03-31T07:22:39.287Z,8.52
2023-03-31T07:23:39.303Z,8.52
2023-03-31T07:24:39.264Z,8.45
2023-03-31T07:25:39.253Z,8.45
2023-03-31T07:26:39.231Z,8.44
2023-03-31T07:27:39.216Z,8.41
2023-03-31T07:28:39.219Z,8.34
2023-03-31T07:29:39.209Z,8.30
2023-03-31T07:30:39.187Z,8.24
2023-03-31T07:31:39.268Z,8.23
2023-03-31T07:32:39.211Z,8.26
2023-03-31T07:33:39.152Z,8.24
2023-03-31T07:34:39.145Z,8.24
2023-03-31T07:35:39.191Z,8.26
2023-03-31T07:36:39.150Z,8.20
2023-03-31T07:37:39.097Z,8.19
2023-03-31T07:38:39.086Z,8.19
2023-03-31T07:39:39.063Z,8.23
2023-03-31T07:40:39.059Z,8.24
2023-03-31T07:41:39.044Z,8.27
2023-03-31T07:42:39.033Z,8.34
2023-03-31T07:43:39.011Z,8.44
2023-03-31T07:44:39.010Z,8.58
2023-03-31T07:45:39.032Z,8.69
2023-03-31T07:46:39.087Z,9.03
2023-03-31T07:47:39.069Z,9.79
2023-03-31T07:48:38.955Z,10.86
2023-03-31T07:49:38.946Z,11.94
2023-03-31T07:50:38.929Z,12.86
2023-03-31T07:51:38.936Z,13.38
2023-03-31T07:52:38.903Z,13.83
2023-03-31T07:53:38.911Z,14.18
2023-03-31T07:54:38.869Z,14.36
2023-03-31T07:55:38.861Z,14.59
2023-03-31T07:56:38.853Z,14.58
2023-03-31T07:57:38.841Z,14.37
2023-03-31T07:58:38.836Z,14.88
2023-03-31T07:59:38.806Z,15.33
2023-03-31T08:00:38.799Z,15.75
2023-03-31T08:01:38.828Z,15.88
2023-03-31T08:02:38.903Z,16.05
2023-03-31T08:03:38.797Z,16.42
2023-03-31T08:04:38.784Z,16.35
2023-03-31T08:05:38.730Z,16.32
2023-03-31T08:06:38.739Z,16.79
2023-03-31T08:07:38.704Z,16.89
2023-03-31T08:08:38.715Z,16.17
2023-03-31T08:09:38.684Z,15.37
2023-03-31T08:10:38.661Z,14.33
2023-03-31T08:11:38.648Z,13.60
2023-03-31T08:12:38.636Z,12.80
2023-03-31T08:13:38.624Z,12.17
2023-03-31T08:14:41.594Z,11.80
2023-03-31T08:15:38.646Z,11.66
2023-03-31T08:16:38.657Z,11.45
2023-03-31T08:17:38.621Z,11.32
2023-03-31T08:18:38.571Z,11.27
2023-03-31T08:19:38.582Z,11.27
2023-03-31T08:20:38.537Z,11.40
2023-03-31T08:21:38.528Z,11.48
2023-03-31T08:22:38.567Z,11.78
2023-03-31T08:23:38.515Z,12.46
2023-03-31T08:24:38.504Z,12.76
2023-03-31T08:25:38.479Z,13.01
2023-03-31T08:26:38.456Z,13.31
2023-03-31T08:27:38.461Z,13.74
2023-03-31T08:28:38.445Z,14.05
2023-03-31T08:29:38.422Z,14.33
2023-03-31T08:30:38.412Z,14.59
2023-03-31T08:31:38.465Z,14.96
2023-03-31T08:32:38.422Z,15.37
2023-03-31T08:33:38.368Z,15.55
2023-03-31T08:34:38.373Z,15.33
2023-03-31T08:35:38.417Z,15.76
2023-03-31T08:36:38.328Z,16.00
2023-03-31T08:37:38.324Z,15.49
2023-03-31T08:38:38.312Z,14.97
2023-03-31T08:39:38.299Z,14.94
2023-03-31T08:40:38.287Z,15.10
2023-03-31T08:41:38.265Z,14.77
2023-03-31T08:42:38.256Z,14.66
2023-03-31T08:43:38.253Z,14.69
2023-03-31T08:44:38.225Z,14.66
2023-03-31T08:45:38.242Z,14.23
2023-03-31T08:46:38.275Z,14.40
2023-03-31T08:47:38.341Z,14.14
2023-03-31T08:48:38.186Z,13.53
2023-03-31T08:49:38.171Z,13.44
2023-03-31T08:50:38.154Z,13.78
2023-03-31T08:51:38.171Z,13.86
2023-03-31T08:52:38.140Z,13.71
2023-03-31T08:53:38.115Z,13.27
2023-03-31T08:54:38.099Z,12.98
2023-03-31T08:55:38.102Z,13.09
2023-03-31T08:56:38.079Z,13.05
2023-03-31T08:57:38.069Z,13.25
2023-03-31T08:58:38.055Z,13.47
2023-03-31T08:59:38.037Z,13.47
2023-03-31T09:00:38.038Z,13.79
2023-03-31T09:01:52.301Z,13.68
2023-03-31T09:02:39.396Z,13.93
2023-03-31T09:03:38.209Z,14.04
2023-03-31T09:04:37.978Z,14.51
2023-03-31T09:05:43.421Z,14.37
2023-03-31T09:06:38.965Z,14.26
2023-03-31T09:07:37.957Z,14.25
2023-03-31T09:08:37.923Z,14.25
2023-03-31T09:09:37.911Z,14.51
2023-03-31T09:10:37.900Z,14.81
2023-03-31T09:11:37.881Z,14.55
2023-03-31T09:12:37.872Z,14.50
2023-03-31T09:13:37.854Z,14.60
2023-03-31T09:14:37.854Z,14.69
2023-03-31T09:15:37.850Z,14.54
2023-03-31T09:16:37.869Z,14.48
2023-03-31T09:17:37.839Z,14.36
2023-03-31T09:18:37.803Z,14.28
2023-03-31T09:19:37.776Z,14.20
2023-03-31T09:20:37.768Z,13.93
2023-03-31T09:21:37.751Z,13.97
2023-03-31T09:22:37.737Z,14.11
2023-03-31T09:23:37.756Z,13.97
2023-03-31T09:24:37.718Z,14.04
2023-03-31T09:25:37.703Z,14.08
2023-03-31T09:26:37.709Z,14.11
2023-03-31T09:27:37.685Z,13.97
2023-03-31T09:28:37.685Z,13.72
2023-03-31T09:29:38.182Z,13.68
2023-03-31T09:30:37.636Z,13.60
2023-03-31T09:31:37.660Z,13.56
2023-03-31T09:32:37.651Z,13.47
2023-03-31T09:33:37.603Z,13.67
2023-03-31T09:34:37.585Z,13.44
2023-03-31T09:35:37.698Z,13.41
2023-03-31T09:36:37.557Z,13.27
2023-03-31T09:37:37.559Z,13.75
2023-03-31T09:38:37.534Z,14.23
2023-03-31T09:39:37.564Z,14.55
2023-03-31T09:40:37.523Z,14.37
2023-03-31T09:41:37.492Z,14.17
2023-03-31T09:42:37.490Z,14.23
2023-03-31T09:43:37.475Z,14.26
2023-03-31T09:44:37.466Z,14.50
2023-03-31T09:45:37.624Z,14.77
2023-03-31T09:46:37.559Z,14.68
2023-03-31T09:47:37.426Z,14.35
2023-03-31T09:48:37.425Z,14.26
2023-03-31T09:49:37.399Z,14.05
2023-03-31T09:50:37.393Z,13.83
2023-03-31T09:51:37.383Z,13.38
2023-03-31T09:52:37.362Z,13.13
2023-03-31T09:53:37.342Z,12.98
2023-03-31T09:54:37.350Z,12.86
2023-03-31T09:55:40.205Z,12.82
2023-03-31T09:56:37.317Z,12.72
2023-03-31T09:57:37.326Z,12.61
2023-03-31T09:58:37.286Z,12.62
2023-03-31T09:59:37.272Z,12.61
2023-03-31T10:00:37.254Z,12.61
2023-03-31T10:01:37.316Z,12.58
2023-03-31T10:02:37.277Z,12.55
2023-03-31T10:03:37.351Z,12.57
2023-03-31T10:04:37.306Z,12.57
2023-03-31T10:05:37.202Z,12.47
2023-03-31T10:06:37.188Z,12.49
2023-03-31T10:07:37.164Z,12.57
2023-03-31T10:08:37.167Z,12.82
2023-03-31T10:09:37.137Z,13.12
2023-03-31T10:10:37.130Z,13.33
2023-03-31T10:11:37.165Z,13.53
2023-03-31T10:12:37.114Z,13.70
2023-03-31T10:13:37.094Z,13.85
2023-03-31T10:14:37.078Z,13.92
2023-03-31T10:15:37.083Z,13.97
2023-03-31T10:16:37.053Z,13.92
2023-03-31T10:17:47.202Z,13.89
2023-03-31T10:18:38.248Z,13.75
2023-03-31T10:19:37.021Z,13.79
2023-03-31T10:20:37.008Z,13.81
2023-03-31T10:21:36.983Z,13.92
2023-03-31T10:22:36.973Z,13.97
2023-03-31T10:23:37.006Z,14.05
2023-03-31T10:24:36.949Z,14.12
2023-03-31T10:25:36.949Z,14.25
2023-03-31T10:26:36.919Z,14.36
2023-03-31T10:27:36.963Z,14.26
2023-03-31T10:28:36.900Z,14.22
2023-03-31T10:29:36.887Z,14.10
2023-03-31T10:30:36.875Z,14.07
2023-03-31T10:31:36.871Z,14.04
2023-03-31T10:32:36.863Z,14.10
2023-03-31T10:33:36.861Z,14.05
2023-03-31T10:34:36.824Z,13.97
2023-03-31T10:35:36.812Z,13.99
2023-03-31T10:36:36.802Z,13.90
2023-03-31T10:37:36.791Z,13.79
2023-03-31T10:38:36.768Z,13.72
2023-03-31T10:39:36.753Z,13.71
2023-03-31T10:40:36.811Z,13.75
2023-03-31T10:41:36.736Z,13.70
2023-03-31T10:42:36.718Z,13.74
2023-03-31T10:43:36.732Z,13.81
2023-03-31T10:44:36.701Z,13.92
2023-03-31T10:45:38.352Z,13.92
2023-03-31T10:46:36.669Z,13.93
2023-03-31T10:47:36.694Z,13.95
2023-03-31T10:48:36.641Z,14.05
2023-03-31T10:49:36.627Z,14.12
2023-03-31T10:50:36.742Z,14.11
2023-03-31T10:51:36.601Z,14.15
2023-03-31T10:52:36.582Z,14.05
2023-03-31T10:53:36.576Z,14.05
2023-03-31T10:54:36.578Z,14.00
2023-03-31T10:55:36.629Z,13.93
2023-03-31T10:56:36.532Z,13.95
2023-03-31T10:57:36.573Z,13.81
2023-03-31T10:58:36.512Z,13.85
2023-03-31T10:59:36.545Z,13.85
2023-03-31T11:00:36.492Z,13.74
2023-03-31T11:01:36.507Z,13.74
2023-03-31T11:02:36.531Z,13.77
2023-03-31T11:03:36.535Z,13.85
2023-03-31T11:04:36.428Z,14.00
2023-03-31T11:05:36.425Z,14.15
2023-03-31T11:06:36.420Z,14.25
2023-03-31T11:07:36.403Z,14.35
2023-03-31T11:08:36.386Z,14.36
2023-03-31T11:09:36.376Z,14.47
2023-03-31T11:10:36.368Z,14.54
2023-03-31T11:11:36.354Z,14.53
2023-03-31T11:12:36.324Z,14.53
2023-03-31T11:13:36.358Z,14.44
2023-03-31T11:14:36.336Z,14.43
2023-03-31T11:15:36.348Z,14.32
2023-03-31T11:16:36.451Z,14.37
2023-03-31T11:17:36.282Z,14.50
2023-03-31T11:18:36.322Z,14.63
2023-03-31T11:19:36.251Z,14.68
2023-03-31T11:20:36.236Z,14.70
2023-03-31T11:21:36.309Z,14.78
2023-03-31T11:22:36.226Z,14.78
2023-03-31T11:23:36.199Z,14.79
2023-03-31T11:24:36.185Z,14.73
2023-03-31T11:25:36.171Z,14.55
2023-03-31T11:26:36.151Z,14.60
2023-03-31T11:27:36.140Z,14.54
2023-03-31T11:28:36.132Z,14.65
2023-03-31T11:29:36.135Z,14.51
2023-03-31T11:30:36.102Z,14.37
2023-03-31T11:31:36.150Z,14.35
2023-03-31T11:32:36.130Z,14.48
2023-03-31T11:33:36.085Z,14.60
2023-03-31T11:34:36.065Z,14.65
2023-03-31T11:35:36.066Z,14.68
2023-03-31T11:36:36.034Z,14.69
2023-03-31T11:37:36.020Z,14.68
2023-03-31T11:38:36.018Z,14.54
2023-03-31T11:39:35.992Z,14.25
2023-03-31T11:40:35.977Z,13.96
2023-03-31T11:41:36.006Z,13.65
2023-03-31T11:42:35.952Z,13.47
2023-03-31T11:43:35.943Z,13.42
2023-03-31T11:44:35.931Z,13.42
2023-03-31T11:45:35.909Z,13.35
2023-03-31T11:46:36.039Z,13.27
2023-03-31T11:47:35.935Z,13.19
2023-03-31T11:48:35.872Z,13.04
2023-03-31T11:49:35.862Z,12.87
2023-03-31T11:50:35.864Z,12.85
2023-03-31T11:51:35.838Z,12.70
2023-03-31T11:52:35.820Z,12.65
2023-03-31T11:53:35.814Z,12.73
2023-03-31T11:54:35.796Z,12.68
2023-03-31T11:55:35.793Z,12.68
2023-03-31T11:56:35.790Z,12.68
2023-03-31T11:57:35.757Z,12.64
2023-03-31T11:58:35.766Z,12.60
2023-03-31T11:59:35.743Z,12.64
2023-03-31T12:00:35.720Z,12.54
2023-03-31T12:01:35.711Z,12.39
2023-03-31T12:02:35.737Z,12.39
2023-03-31T12:03:35.767Z,12.45
2023-03-31T12:04:35.669Z,12.47
2023-03-31T12:05:35.674Z,12.57
2023-03-31T12:06:35.640Z,12.62
2023-03-31T12:07:35.644Z,12.60
2023-03-31T12:08:35.635Z,12.64
2023-03-31T12:09:35.604Z,12.58
2023-03-31T12:10:35.590Z,12.61
2023-03-31T12:11:35.578Z,12.54
2023-03-31T12:12:35.573Z,12.50
2023-03-31T12:13:35.562Z,12.43
2023-03-31T12:14:35.551Z,12.39
2023-03-31T12:15:35.540Z,12.31
2023-03-31T12:16:35.620Z,12.28
2023-03-31T12:17:35.532Z,12.25
2023-03-31T12:18:35.518Z,12.21
2023-03-31T12:19:35.503Z,12.20
2023-03-31T12:20:35.481Z,12.21
2023-03-31T12:21:35.450Z,12.24
2023-03-31T12:22:35.461Z,12.12
2023-03-31T12:23:35.428Z,12.09
2023-03-31T12:24:35.475Z,12.04
2023-03-31T12:25:35.427Z,11.84
2023-03-31T12:26:35.392Z,11.68
2023-03-31T12:27:35.387Z,11.68
2023-03-31T12:28:35.387Z,11.66
2023-03-31T12:29:35.346Z,11.68
2023-03-31T12:30:35.354Z,11.65
2023-03-31T12:31:35.359Z,11.66
2023-03-31T12:32:35.378Z,11.68
2023-03-31T12:33:35.295Z,11.65
2023-03-31T12:34:35.301Z,11.62
2023-03-31T12:35:35.323Z,11.63
2023-03-31T12:36:35.278Z,11.57
2023-03-31T12:37:35.256Z,11.41
2023-03-31T12:38:35.235Z,11.12
2023-03-31T12:39:35.230Z,10.92
2023-03-31T12:40:35.232Z,10.63
2023-03-31T12:41:35.206Z,10.48
2023-03-31T12:42:35.190Z,10.41
2023-03-31T12:43:35.175Z,10.34
2023-03-31T12:44:35.162Z,10.34
2023-03-31T12:45:35.165Z,10.33
2023-03-31T12:46:35.182Z,10.30
2023-03-31T12:47:35.172Z,10.30
2023-03-31T12:48:35.127Z,10.34
2023-03-31T12:49:35.103Z,10.35
2023-03-31T12:50:35.097Z,10.40
2023-03-31T12:51:35.097Z,10.44
2023-03-31T12:52:35.068Z,10.51
2023-03-31T12:53:35.056Z,10.53
2023-03-31T12:54:35.046Z,10.57
2023-03-31T12:55:35.015Z,10.60
2023-03-31T12:56:35.010Z,10.57
2023-03-31T12:57:35.095Z,10.60
2023-03-31T12:58:34.988Z,10.60
2023-03-31T12:59:35.011Z,10.68
2023-03-31T13:00:34.998Z,10.74
2023-03-31T13:01:35.105Z,10.82
2023-03-31T13:02:35.133Z,10.90
2023-03-31T13:03:34.915Z,11.12
2023-03-31T13:04:34.911Z,11.29
2023-03-31T13:05:34.916Z,11.52
2023-03-31T13:06:34.884Z,11.87
2023-03-31T13:07:34.892Z,12.12
2023-03-31T13:08:34.877Z,12.24